createdAt,value
2023-03-27T00:00:01.026Z,1057.00
2023-03-27T00:04:00.982Z,1162.00
2023-03-27T00:08:00.881Z,1195.00
2023-03-27T00:12:00.879Z,1070.00
2023-03-27T00:16:00.773Z,1047.00
2023-03-27T00:20:00.702Z,1097.00
2023-03-27T00:24:00.628Z,1125.00
2023-03-27T00:28:00.812Z,972.00
2023-03-27T00:32:00.971Z,1015.00
2023-03-27T00:36:01.091Z,1028.00
2023-03-27T00:40:01.251Z,975.00
2023-03-27T00:44:01.301Z,953.00
2023-03-27T00:48:01.557Z,995.00
2023-03-27T00:52:01.588Z,1049.00
2023-03-27T00:56:01.741Z,1056.00
2023-03-27T01:00:01.827Z,1015.00
2023-03-27T01:04:01.784Z,1100.00
2023-03-27T01:08:02.011Z,1130.00
2023-03-27T01:12:01.815Z,1082.00
2023-03-27T01:16:01.835Z,1095.00
2023-03-27T01:20:01.781Z,1105.00
2023-03-27T01:24:01.731Z,1027.00
2023-03-27T01:28:01.726Z,1062.00
2023-03-27T01:32:01.780Z,1066.00
2023-03-27T01:36:02.068Z,1065.00
2023-03-27T01:40:02.176Z,1076.00
2023-03-27T01:44:02.185Z,1045.00
2023-03-27T01:48:02.262Z,1089.00
2023-03-27T01:52:02.155Z,959.00
2023-03-27T01:56:02.108Z,1028.00
2023-03-27T02:00:17.510Z,1056.00
2023-03-27T02:04:02.990Z,1031.00
2023-03-27T02:08:01.958Z,1012.00
2023-03-27T02:12:01.869Z,1065.00
2023-03-27T02:16:01.890Z,1054.00
2023-03-27T02:20:01.856Z,1010.00
2023-03-27T02:24:01.813Z,1064.00
2023-03-27T02:28:01.764Z,1059.00
2023-03-27T02:32:01.765Z,1060.00
2023-03-27T02:36:01.750Z,1086.00
2023-03-27T02:40:01.715Z,1069.00
2023-03-27T02:44:01.653Z,1070.00
2023-03-27T02:48:01.642Z,1064.00
2023-03-27T02:52:01.585Z,1020.00
2023-03-27T02:56:01.600Z,1040.00
2023-03-27T03:00:01.488Z,1022.00
2023-03-27T03:04:01.462Z,1014.00
2023-03-27T03:08:01.417Z,967.00
2023-03-27T03:12:01.370Z,962.00
2023-03-27T03:16:01.325Z,927.00
2023-03-27T03:20:01.268Z,952.00
2023-03-27T03:24:01.350Z,952.00
2023-03-27T03:28:01.230Z,833.00
2023-03-27T03:32:01.186Z,766.00
2023-03-27T03:36:01.192Z,771.00
2023-03-27T03:40:01.179Z,668.00
2023-03-27T03:44:01.128Z,663.00
2023-03-27T03:48:01.163Z,631.00
2023-03-27T03:52:03.785Z,614.00
2023-03-27T03:56:01.084Z,583.00
2023-03-27T04:00:01.051Z,623.00
2023-03-27T04:04:01.008Z,568.00
2023-03-27T04:08:00.957Z,550.00
2023-03-27T04:12:00.882Z,542.00
2023-03-27T04:16:00.903Z,500.00
2023-03-27T04:20:00.801Z,539.00
2023-03-27T04:24:00.683Z,578.00
2023-03-27T04:28:00.625Z,549.00
2023-03-27T04:32:00.526Z,505.00
2023-03-27T04:36:05.498Z,513.00
2023-03-27T04:40:01.386Z,522.00
2023-03-27T04:44:00.387Z,622.00
2023-03-27T04:48:00.385Z,793.00
2023-03-27T04:52:00.232Z,745.00
2023-03-27T04:56:00.145Z,916.00
2023-03-27T05:00:00.334Z,1095.00
2023-03-27T05:04:00.554Z,966.00
2023-03-27T05:08:00.444Z,1206.00
2023-03-27T05:12:00.340Z,1331.00
2023-03-27T05:16:00.316Z,1398.00
2023-03-27T05:20:00.239Z,1421.00
2023-03-27T05:24:00.122Z,1441.00
2023-03-27T05:28:00.074Z,1562.00
2023-03-27T05:32:01.464Z,1765.00
2023-03-27T05:35:59.958Z,1736.00
2023-03-27T05:39:59.780Z,1857.00
2023-03-27T05:43:59.930Z,1972.00
2023-03-27T05:47:59.723Z,2171.00
2023-03-27T05:51:59.917Z,2409.00
2023-03-27T05:56:03.197Z,2585.00
2023-03-27T05:59:59.895Z,2696.00
2023-03-27T06:03:59.442Z,2871.00
2023-03-27T06:07:59.408Z,2927.00
2023-03-27T06:11:59.224Z,3097.00
2023-03-27T06:15:59.554Z,3134.00
2023-03-27T06:19:59.121Z,3096.00
2023-03-27T06:23:59.043Z,3173.00
2023-03-27T06:27:59.118Z,3124.00
2023-03-27T06:31:59.262Z,3148.00
2023-03-27T06:36:00.349Z,3092.00
2023-03-27T06:39:59.347Z,3197.00
2023-03-27T06:43:59.273Z,3251.00
2023-03-27T06:48:00.645Z,3394.00
2023-03-27T06:52:00.404Z,3550.00
2023-03-27T06:55:59.553Z,3702.00
2023-03-27T07:00:01.641Z,3624.00
2023-03-27T07:03:59.384Z,3531.00
2023-03-27T07:08:03.264Z,3502.00
2023-03-27T07:11:59.919Z,3493.00
2023-03-27T07:15:58.864Z,3447.00
2023-03-27T07:19:59.428Z,3478.00
2023-03-27T07:23:58.853Z,3408.00
2023-03-27T07:27:58.945Z,3523.00
2023-03-27T07:32:01.510Z,3400.00
2023-03-27T07:35:59.376Z,3462.00
2023-03-27T07:39:58.943Z,3500.00
2023-03-27T07:43:58.432Z,3665.00
2023-03-27T07:47:58.264Z,3640.00
2023-03-27T07:51:58.442Z,3578.00
2023-03-27T07:55:58.426Z,3586.00
2023-03-27T07:59:58.040Z,3598.00
2023-03-27T08:03:58.609Z,3632.00
2023-03-27T08:07:58.200Z,3601.00
2023-03-27T08:11:58.347Z,3586.00
2023-03-27T08:15:58.642Z,3558.00
2023-03-27T08:19:58.579Z,3674.00
2023-03-27T08:23:58.739Z,3650.00
2023-03-27T08:27:58.913Z,3584.00
2023-03-27T08:31:58.896Z,3610.00
2023-03-27T08:35:59.746Z,3583.00
2023-03-27T08:39:59.445Z,3540.00
2023-03-27T08:43:59.255Z,3599.00
2023-03-27T08:47:59.297Z,3667.00
2023-03-27T08:51:59.508Z,3652.00
2023-03-27T08:55:59.491Z,3623.00
2023-03-27T08:59:59.354Z,3614.00
2023-03-27T09:03:59.522Z,3586.00
2023-03-27T09:07:59.361Z,3575.00
2023-03-27T09:11:59.390Z,3514.00
2023-03-27T09:15:59.820Z,3505.00
2023-03-27T09:19:59.323Z,3471.00
2023-03-27T09:23:59.336Z,3418.00
2023-03-27T09:27:59.477Z,3439.00
2023-03-27T09:31:59.409Z,3407.00
2023-03-27T09:35:59.784Z,3419.00
2023-03-27T09:39:59.617Z,3389.00
2023-03-27T09:43:59.610Z,3455.00
2023-03-27T09:47:59.478Z,3545.00
2023-03-27T09:51:59.551Z,3499.00
2023-03-27T09:56:01.001Z,3481.00
2023-03-27T09:59:59.454Z,3423.00
2023-03-27T10:03:59.300Z,3393.00
2023-03-27T10:07:59.169Z,3374.00
2023-03-27T10:11:59.083Z,3119.00
2023-03-27T10:15:59.508Z,3271.00
2023-03-27T10:19:59.013Z,3219.00
2023-03-27T10:23:58.866Z,3216.00
2023-03-27T10:27:58.759Z,3083.00
2023-03-27T10:31:59.054Z,3084.00
2023-03-27T10:35:59.140Z,3109.00
2023-03-27T10:39:58.550Z,2910.00
2023-03-27T10:43:58.520Z,3069.00
2023-03-27T10:47:58.491Z,3141.00
2023-03-27T10:51:58.320Z,3170.00
2023-03-27T10:55:58.197Z,3190.00
2023-03-27T10:59:58.155Z,3238.00
2023-03-27T11:03:58.553Z,3136.00
2023-03-27T11:07:57.995Z,3124.00
2023-03-27T11:11:58.030Z,3198.00
2023-03-27T11:15:57.770Z,3061.00
2023-03-27T11:19:57.827Z,3149.00
2023-03-27T11:23:58.017Z,3155.00
2023-03-27T11:27:57.571Z,3149.00
2023-03-27T11:31:57.516Z,3230.00
2023-03-27T11:35:57.564Z,3142.00
2023-03-27T11:39:57.539Z,3066.00
2023-03-27T11:43:57.275Z,2996.00
2023-03-27T11:47:57.265Z,2889.00
2023-03-27T11:51:57.322Z,3001.00
2023-03-27T11:55:57.532Z,2982.00
2023-03-27T11:59:57.175Z,2906.00
2023-03-27T12:03:57.237Z,2903.00
2023-03-27T12:07:57.501Z,2911.00
2023-03-27T12:11:57.155Z,2925.00
2023-03-27T12:15:57.513Z,2913.00
2023-03-27T12:19:57.002Z,2862.00
2023-03-27T12:23:57.014Z,2909.00
2023-03-27T12:27:56.839Z,3000.00
2023-03-27T12:31:56.796Z,2895.00
2023-03-27T12:35:56.677Z,3017.00
2023-03-27T12:39:56.559Z,2918.00
2023-03-27T12:43:56.543Z,2809.00
2023-03-27T12:47:56.647Z,2729.00
2023-03-27T12:51:56.591Z,2624.00
2023-03-27T12:55:56.585Z,2601.00
2023-03-27T12:59:56.380Z,2612.00
2023-03-27T13:03:56.382Z,2526.00
2023-03-27T13:07:56.184Z,2475.00
2023-03-27T13:11:56.112Z,2420.00
2023-03-27T13:15:56.395Z,2428.00
2023-03-27T13:19:55.962Z,2357.00
2023-03-27T13:23:55.836Z,2384.00
2023-03-27T13:27:55.778Z,2374.00
2023-03-27T13:31:55.842Z,2296.00
2023-03-27T13:35:55.981Z,2255.00
2023-03-27T13:39:55.663Z,2238.00
2023-03-27T13:43:55.579Z,2235.00
2023-03-27T13:47:55.521Z,2177.00
2023-03-27T13:51:55.435Z,2168.00
2023-03-27T13:55:55.620Z,2087.00
2023-03-27T13:59:55.304Z,2076.00
2023-03-27T14:03:55.432Z,2062.00
2023-03-27T14:07:55.354Z,1996.00
2023-03-27T14:11:55.297Z,1968.00
2023-03-27T14:15:55.696Z,2035.00
2023-03-27T14:19:55.164Z,2069.00
2023-03-27T14:23:55.096Z,1945.00
2023-03-27T14:27:55.024Z,1969.00
2023-03-27T14:31:54.970Z,2093.00
2023-03-27T14:35:54.922Z,2090.00
2023-03-27T14:39:54.761Z,1973.00
2023-03-27T14:43:54.722Z,1948.00
2023-03-27T14:47:54.662Z,1993.00
2023-03-27T14:51:54.840Z,2005.00
2023-03-27T14:55:54.866Z,1946.00
2023-03-27T14:59:54.706Z,2020.00
2023-03-27T15:03:54.632Z,2041.00
2023-03-27T15:07:54.579Z,2018.00
2023-03-27T15:11:54.510Z,2084.00
2023-03-27T15:15:54.515Z,2049.00
2023-03-27T15:19:54.382Z,2004.00
2023-03-27T15:23:54.366Z,1973.00
2023-03-27T15:27:54.251Z,1898.00
2023-03-27T15:31:54.334Z,1891.00
2023-03-27T15:35:54.357Z,1971.00
2023-03-27T15:39:54.185Z,1878.00
2023-03-27T15:43:54.171Z,1868.00
2023-03-27T15:47:54.130Z,1818.00
2023-03-27T15:51:54.045Z,1946.00
2023-03-27T15:55:54.015Z,1827.00
2023-03-27T15:59:53.981Z,1855.00
2023-03-27T16:03:56.155Z,1837.00
2023-03-27T16:07:53.756Z,1864.00
2023-03-27T16:11:53.673Z,1854.00
2023-03-27T16:15:53.618Z,1793.00
2023-03-27T16:19:53.529Z,1829.00
2023-03-27T16:23:53.440Z,1788.00
2023-03-27T16:27:53.372Z,1801.00
2023-03-27T16:31:53.307Z,1720.00
2023-03-27T16:35:53.310Z,1727.00
2023-03-27T16:39:53.129Z,1750.00
2023-03-27T16:43:53.059Z,1680.00
2023-03-27T16:47:53.563Z,1637.00
2023-03-27T16:51:53.039Z,1710.00
2023-03-27T16:55:53.058Z,1652.00
2023-03-27T16:59:53.111Z,1702.00
2023-03-27T17:03:53.046Z,1543.00
2023-03-27T17:07:53.107Z,1559.00
2023-03-27T17:11:53.141Z,1403.00
2023-03-27T17:15:53.196Z,1299.00
2023-03-27T17:19:53.309Z,1196.00
2023-03-27T17:23:53.370Z,1006.00
2023-03-27T17:27:53.441Z,1125.00
2023-03-27T17:31:53.581Z,1100.00
2023-03-27T17:35:53.689Z,905.00
2023-03-27T17:39:53.764Z,990.00
2023-03-27T17:43:53.919Z,813.00
2023-03-27T17:47:54.130Z,777.00
2023-03-27T17:51:54.177Z,808.00
2023-03-27T17:55:54.340Z,670.00
2023-03-27T17:59:54.519Z,660.00
2023-03-27T18:03:54.762Z,594.00
2023-03-27T18:07:54.868Z,630.00
2023-03-27T18:11:55.085Z,598.00
2023-03-27T18:15:55.298Z,579.00
2023-03-27T18:19:55.435Z,578.00
2023-03-27T18:23:55.613Z,607.00
2023-03-27T18:27:55.546Z,580.00
2023-03-27T18:31:55.558Z,543.00
2023-03-27T18:35:55.699Z,572.00
2023-03-27T18:39:55.374Z,576.00
2023-03-27T18:43:55.355Z,559.00
2023-03-27T18:47:55.295Z,528.00
2023-03-27T18:51:55.240Z,555.00
2023-03-27T18:55:55.254Z,543.00
2023-03-27T18:59:55.157Z,566.00
2023-03-27T19:03:55.109Z,649.00
2023-03-27T19:07:55.058Z,525.00
2023-03-27T19:11:55.003Z,589.00
2023-03-27T19:15:54.957Z,575.00
2023-03-27T19:19:54.933Z,577.00
2023-03-27T19:23:54.864Z,593.00
2023-03-27T19:27:54.810Z,626.00
2023-03-27T19:31:54.753Z,519.00
2023-03-27T19:35:54.801Z,646.00
2023-03-27T19:39:54.672Z,533.00
2023-03-27T19:43:54.789Z,563.00
2023-03-27T19:47:54.777Z,568.00
2023-03-27T19:51:54.714Z,518.00
2023-03-27T19:55:54.637Z,505.00
2023-03-27T19:59:54.608Z,543.00
2023-03-27T20:03:54.601Z,578.00
2023-03-27T20:07:54.536Z,609.00
2023-03-27T20:11:54.496Z,526.00
2023-03-27T20:15:54.426Z,485.00
2023-03-27T20:19:54.374Z,593.00
2023-03-27T20:23:54.270Z,553.00
2023-03-27T20:27:54.267Z,586.00
2023-03-27T20:31:54.303Z,623.00
2023-03-27T20:35:54.294Z,585.00
2023-03-27T20:39:54.287Z,515.00
2023-03-27T20:43:54.296Z,535.00
2023-03-27T20:47:54.341Z,553.00
2023-03-27T20:51:54.359Z,563.00
2023-03-27T20:55:59.716Z,603.00
2023-03-27T20:59:55.289Z,598.00
2023-03-27T21:03:54.216Z,647.00
2023-03-27T21:07:54.277Z,594.00
2023-03-27T21:11:54.118Z,501.00
2023-03-27T21:15:54.097Z,543.00
2023-03-27T21:19:54.082Z,604.00
2023-03-27T21:23:54.027Z,541.00
2023-03-27T21:27:54.011Z,556.00
2023-03-27T21:31:53.993Z,572.00
2023-03-27T21:35:54.212Z,591.00
2023-03-27T21:39:53.892Z,604.00
2023-03-27T21:43:53.870Z,536.00
2023-03-27T21:47:53.928Z,563.00
2023-03-27T21:51:53.859Z,604.00
2023-03-27T21:55:53.850Z,559.00
2023-03-27T21:59:53.887Z,543.00
2023-03-27T22:03:53.850Z,548.00
2023-03-27T22:07:53.975Z,568.00
2023-03-27T22:11:53.920Z,546.00
2023-03-27T22:15:54.022Z,532.00
2023-03-27T22:19:53.926Z,577.00
2023-03-27T22:23:54.005Z,522.00
2023-03-27T22:27:53.976Z,544.00
2023-03-27T22:31:54.003Z,522.00
2023-03-27T22:35:54.047Z,560.00
2023-03-27T22:39:54.070Z,547.00
2023-03-27T22:43:54.111Z,579.00
2023-03-27T22:47:54.194Z,593.00
2023-03-27T22:51:54.220Z,560.00
2023-03-27T22:55:54.266Z,550.00
2023-03-27T22:59:54.280Z,511.00
2023-03-27T23:03:54.448Z,585.00
2023-03-27T23:07:54.404Z,571.00
2023-03-27T23:11:54.450Z,550.00
2023-03-27T23:15:54.576Z,533.00
2023-03-27T23:19:54.580Z,547.00
2023-03-27T23:23:54.661Z,554.00
2023-03-27T23:27:54.681Z,519.00
2023-03-27T23:31:54.823Z,555.00
2023-03-27T23:35:54.867Z,558.00
2023-03-27T23:39:54.903Z,507.00
2023-03-27T23:43:54.968Z,577.00
2023-03-27T23:47:55.153Z,598.00
2023-03-27T23:51:55.070Z,588.00
2023-03-27T23:55:55.172Z,587.00
2023-03-27T23:59:55.261Z,599.00
